Time;durP1;ratioP1;P1;durP2;ratioP2;P2;SDS_P1;SDS_P2;PMS_P1;PMS_P2;Temp;Humidity;BMP_temperature;BMP_pressure;BME280_temperature;BME280_humidity;BME280_pressure;Samples;Min_cycle;Max_cycle;Signal;HPM_P1;HPM_P2
2021/07/23 00:00:31;;;;;;;7.68;5.75;;;;;;;;;;2120614;27;20574;-42
2021/07/23 00:01:32;;;;;;;12.50;5.10;;;;;;;;;;2128627;27;20055;-42
2021/07/23 00:02:33;;;;;;;11.95;5.85;;;;;;;;;;2131146;27;20286;-42
2021/07/23 00:03:35;;;;;;;11.57;6.00;;;;;;;;;;2125407;27;20043;-42
2021/07/23 00:04:35;;;;;;;11.90;5.90;;;;;;;;;;2122724;27;20039;-42
2021/07/23 00:05:37;;;;;;;9.03;5.37;;;;;;;;;;2122659;28;20085;-42
2021/07/23 00:06:38;;;;;;;8.25;5.22;;;;;;;;;;2120538;27;20134;-42
2021/07/23 00:07:39;;;;;;;8.53;5.73;;;;;;;;;;2130979;27;20050;-42
2021/07/23 00:08:40;;;;;;;7.35;5.28;;;;;;;;;;2131133;27;20131;-42
2021/07/23 00:09:41;;;;;;;11.93;5.50;;;;;;;;;;2124445;27;20038;-42
2021/07/23 00:10:42;;;;;;;9.10;6.18;;;;;;;;;;2122461;27;20368;-42
2021/07/23 00:11:43;;;;;;;8.47;5.30;;;;;;;;;;2122614;28;20126;-42
2021/07/23 00:12:44;;;;;;;9.35;5.90;;;;;;;;;;2121544;27;20051;-42
2021/07/23 00:13:45;;;;;;;10.40;5.27;;;;;;;;;;2131155;27;20047;-42
2021/07/23 00:14:46;;;;;;;12.23;5.63;;;;;;;;;;2131087;27;20043;-42
2021/07/23 00:15:47;;;;;;;12.77;5.68;;;;;;;;;;2122772;27;20088;-42
2021/07/23 00:16:48;;;;;;;11.38;6.13;;;;;;;;;;2131076;27;20133;-42
2021/07/23 00:17:49;;;;;;;7.87;5.47;;;;;;;;;;2130318;27;20141;-42
2021/07/23 00:18:50;;;;;;;10.45;5.95;;;;;;;;;;2123575;27;20142;-42
2021/07/23 00:19:51;;;;;;;13.10;6.43;;;;;;;;;;2130974;27;20055;-42
2021/07/23 00:20:52;;;;;;;7.75;4.97;;;;;;;;;;2129703;27;20137;-42
2021/07/23 00:21:53;;;;;;;10.47;5.17;;;;;;;;;;2122689;27;20507;-42
2021/07/23 00:22:54;;;;;;;11.13;5.65;;;;;;;;;;2122498;28;20165;-42
2021/07/23 00:23:55;;;;;;;9.90;6.03;;;;;;;;;;2121664;27;20070;-42
2021/07/23 00:24:56;;;;;;;12.02;5.40;;;;;;;;;;2125720;27;20395;-42
2021/07/23 00:25:57;;;;;;;9.10;5.45;;;;;;;;;;2131025;27;20114;-42
2021/07/23 00:26:58;;;;;;;8.30;5.60;;;;;;;;;;2124764;27;20416;-42
2021/07/23 00:27:59;;;;;;;9.00;5.47;;;;;;;;;;2125936;27;20050;-42
2021/07/23 00:29:00;;;;;;;8.27;5.70;;;;;;;;;;2131025;27;20134;-42
2021/07/23 00:30:02;;;;;;;10.67;5.33;;;;;;;;;;2125918;27;20050;-42
2021/07/23 00:31:03;;;;;;;9.30;5.30;;;;;;;;;;2127895;27;20047;-43
2021/07/23 00:32:05;;;;;;;10.07;5.87;;;;;;;;;;2131006;27;20070;-42
2021/07/23 00:33:06;;;;;;;8.88;5.50;;;;;;;;;;2125207;27;20126;-42
2021/07/23 00:34:07;;;;;;;8.87;5.03;;;;;;;;;;2123718;27;20525;-42
2021/07/23 00:35:08;;;;;;;10.23;5.72;;;;;;;;;;2122333;28;20070;-42
2021/07/23 00:36:09;;;;;;;7.70;5.60;;;;;;;;;;2120551;27;20126;-42
2021/07/23 00:37:10;;;;;;;9.20;5.53;;;;;;;;;;2128518;27;20070;-42
2021/07/23 00:38:12;;;;;;;9.10;4.97;;;;;;;;;;2131063;27;20055;-42
2021/07/23 00:39:12;;;;;;;11.00;5.25;;;;;;;;;;2124903;27;20564;-42
2021/07/23 00:40:14;;;;;;;8.00;5.57;;;;;;;;;;2122338;27;20058;-42
2021/07/23 00:41:14;;;;;;;10.00;6.20;;;;;;;;;;2122305;28;20563;-42
2021/07/23 00:42:16;;;;;;;7.20;5.13;;;;;;;;;;2122162;27;20107;-42
2021/07/23 00:43:17;;;;;;;13.90;5.35;;;;;;;;;;2122340;27;20054;-42
2021/07/23 00:44:18;;;;;;;8.80;5.70;;;;;;;;;;2122361;28;20051;-42
2021/07/23 00:45:19;;;;;;;9.73;5.55;;;;;;;;;;2121333;27;20049;-42
2021/07/23 00:46:24;;;;;;;10.48;6.07;;;;;;;;;;2122238;28;20653;-42
2021/07/23 00:47:25;;;;;;;10.65;5.93;;;;;;;;;;2122379;28;20039;-42
2021/07/23 00:48:27;;;;;;;11.03;5.97;;;;;;;;;;2122358;27;20100;-42
2021/07/23 00:49:28;;;;;;;10.70;5.50;;;;;;;;;;2130947;27;20130;-42
2021/07/23 00:50:29;;;;;;;8.35;5.68;;;;;;;;;;2130049;27;20240;-42
2021/07/23 00:51:30;;;;;;;10.15;5.60;;;;;;;;;;2123763;27;20054;-42
2021/07/23 00:52:32;;;;;;;11.77;5.93;;;;;;;;;;2129283;27;20554;-42
2021/07/23 00:53:33;;;;;;;11.10;5.82;;;;;;;;;;2129051;27;20453;-42
2021/07/23 00:54:34;;;;;;;12.27;5.83;;;;;;;;;;2124609;27;20071;-42
2021/07/23 00:55:36;;;;;;;8.13;6.03;;;;;;;;;;2130807;27;20463;-42
2021/07/23 00:56:37;;;;;;;10.10;5.60;;;;;;;;;;2127176;27;20156;-42
2021/07/23 00:57:39;;;;;;;10.18;5.82;;;;;;;;;;2123668;27;20138;-42
2021/07/23 00:58:40;;;;;;;9.23;5.50;;;;;;;;;;2122139;28;20043;-42
2021/07/23 00:59:41;;;;;;;6.82;5.90;;;;;;;;;;2120954;27;20130;-42
2021/07/23 01:00:42;;;;;;;13.00;5.37;;;;;;;;;;2128158;27;20521;-42
2021/07/23 01:01:44;;;;;;;9.60;5.68;;;;;;;;;;2130836;27;20050;-42
2021/07/23 01:02:46;;;;;;;9.73;5.82;;;;;;;;;;2126031;27;20051;-42
2021/07/23 01:03:47;;;;;;;9.18;5.82;;;;;;;;;;2128831;27;20049;-42
2021/07/23 01:04:49;;;;;;;9.73;5.90;;;;;;;;;;2130750;27;20138;-42
2021/07/23 01:05:50;;;;;;;11.57;5.68;;;;;;;;;;2123697;27;20416;-42
2021/07/23 01:06:52;;;;;;;9.15;5.68;;;;;;;;;;2129613;27;20537;-42
2021/07/23 01:07:52;;;;;;;9.63;5.72;;;;;;;;;;2130810;27;20078;-42
2021/07/23 01:08:54;;;;;;;6.43;5.10;;;;;;;;;;2122836;27;20047;-42
2021/07/23 01:09:55;;;;;;;;;;;;;;;;;;2128980;27;20129;-42
2021/07/23 01:10:56;;;;;;;7.03;5.00;;;;;;;;;;2130784;27;19923;-42
2021/07/23 01:11:57;;;;;;;8.82;5.65;;;;;;;;;;2124339;27;21035;-42
2021/07/23 01:12:59;;;;;;;11.30;5.82;;;;;;;;;;2122020;27;20051;-42
2021/07/23 01:14:00;;;;;;;6.65;5.10;;;;;;;;;;2123169;28;20047;-42
2021/07/23 01:15:01;;;;;;;8.85;5.20;;;;;;;;;;2122903;27;20099;-42
2021/07/23 01:16:04;;;;;;;9.60;4.90;;;;;;;;;;2132128;27;20499;-42
2021/07/23 01:17:05;;;;;;;8.43;5.97;;;;;;;;;;2132043;27;20054;-42
2021/07/23 01:18:06;;;;;;;9.23;5.63;;;;;;;;;;2123941;27;20137;-42
2021/07/23 01:19:07;;;;;;;9.13;5.45;;;;;;;;;;2132145;27;20082;-42
2021/07/23 01:20:13;;;;;;;14.00;5.72;;;;;;;;;;2131304;27;20095;-42
2021/07/23 01:21:15;;;;;;;7.53;5.60;;;;;;;;;;2125515;27;20125;-42
2021/07/23 01:22:18;;;;;;;6.85;5.38;;;;;;;;;;2132103;27;20150;-42
2021/07/23 01:23:24;;;;;;;8.05;5.65;;;;;;;;;;2125620;27;20134;-42
2021/07/23 01:24:25;;;;;;;7.82;5.00;;;;;;;;;;2124841;27;20130;-42
2021/07/23 01:25:26;;;;;;;12.70;5.88;;;;;;;;;;2123610;28;20393;-42
2021/07/23 01:26:27;;;;;;;6.30;5.50;;;;;;;;;;2121708;27;20134;-42
2021/07/23 01:27:29;;;;;;;9.80;5.83;;;;;;;;;;2129727;27;20141;-42
2021/07/23 01:28:30;;;;;;;7.53;4.88;;;;;;;;;;2132232;27;20043;-42
2021/07/23 01:29:31;;;;;;;7.32;5.45;;;;;;;;;;2125577;27;20135;-42
2021/07/23 01:30:33;;;;;;;9.07;5.30;;;;;;;;;;2130501;27;20130;-42
2021/07/23 01:31:36;;;;;;;8.02;5.32;;;;;;;;;;2132043;27;20070;-42
2021/07/23 01:32:37;;;;;;;7.57;5.00;;;;;;;;;;2124183;27;20507;-42
2021/07/23 01:33:38;;;;;;;6.10;4.80;;;;;;;;;;2131676;27;20045;-42
2021/07/23 01:34:39;;;;;;;7.53;5.40;;;;;;;;;;2132208;27;20125;-42
2021/07/23 01:35:40;;;;;;;7.53;5.43;;;;;;;;;;2125749;27;20043;-42
2021/07/23 01:36:41;;;;;;;6.53;5.55;;;;;;;;;;2123552;28;20176;-42
2021/07/23 01:37:45;;;;;;;7.90;5.47;;;;;;;;;;2123562;28;20124;-42
2021/07/23 01:38:47;;;;;;;8.52;5.57;;;;;;;;;;2123278;27;20477;-42
2021/07/23 01:39:49;;;;;;;7.75;5.40;;;;;;;;;;2123496;28;20393;-42
2021/07/23 01:40:50;;;;;;;;;;;;;;;;;;2123907;28;20137;-42
2021/07/23 01:41:51;;;;;;;8.52;5.28;;;;;;;;;;2123584;27;19923;-42
2021/07/23 01:42:52;;;;;;;9.15;5.43;;;;;;;;;;2123371;28;20082;-42
2021/07/23 01:43:53;;;;;;;10.30;5.77;;;;;;;;;;2123234;27;20552;-42
2021/07/23 01:44:54;;;;;;;8.60;5.80;;;;;;;;;;2124937;27;20086;-42
2021/07/23 01:45:56;;;;;;;8.43;5.53;;;;;;;;;;2123577;28;20134;-42
2021/07/23 01:46:57;;;;;;;10.55;5.60;;;;;;;;;;2122852;27;20047;-42
2021/07/23 01:47:58;;;;;;;8.70;5.53;;;;;;;;;;2124177;27;20077;-42
2021/07/23 01:48:59;;;;;;;12.60;5.88;;;;;;;;;;2123425;28;20051;-42
2021/07/23 01:50:00;;;;;;;12.07;6.03;;;;;;;;;;2122380;27;20200;-42
2021/07/23 01:51:01;;;;;;;8.75;5.10;;;;;;;;;;2125967;27;20051;-42
2021/07/23 01:52:03;;;;;;;9.03;5.80;;;;;;;;;;2123380;28;20055;-42
2021/07/23 01:53:04;;;;;;;9.00;5.30;;;;;;;;;;2125131;27;20055;-42
2021/07/23 01:54:06;;;;;;;9.10;5.95;;;;;;;;;;2125166;27;20135;-42
2021/07/23 01:55:07;;;;;;;6.38;5.05;;;;;;;;;;2123479;28;20047;-42
2021/07/23 01:56:08;;;;;;;9.80;5.60;;;;;;;;;;2121399;27;20126;-42
2021/07/23 01:57:09;;;;;;;8.63;5.55;;;;;;;;;;2129676;27;20183;-42
2021/07/23 01:58:10;;;;;;;6.80;5.40;;;;;;;;;;2132034;27;20491;-42
2021/07/23 01:59:11;;;;;;;7.80;5.32;;;;;;;;;;2125432;27;20051;-42
2021/07/23 02:00:13;;;;;;;11.53;5.70;;;;;;;;;;2130223;27;20103;-42
2021/07/23 02:01:13;;;;;;;9.48;5.50;;;;;;;;;;2131976;27;20053;-42
2021/07/23 02:02:15;;;;;;;10.33;5.47;;;;;;;;;;2124619;27;20138;-42
2021/07/23 02:03:16;;;;;;;10.52;5.65;;;;;;;;;;2131097;27;20054;-42
2021/07/23 02:04:17;;;;;;;7.75;5.57;;;;;;;;;;2132018;27;20066;-42
2021/07/23 02:05:18;;;;;;;7.97;5.13;;;;;;;;;;2125928;27;20141;-42
2021/07/23 02:06:19;;;;;;;8.67;5.57;;;;;;;;;;2123505;27;20479;-42
2021/07/23 02:07:20;;;;;;;7.85;5.47;;;;;;;;;;2123211;28;20130;-42
2021/07/23 02:08:21;;;;;;;7.18;5.40;;;;;;;;;;2123398;27;20410;-42
2021/07/23 02:09:23;;;;;;;9.20;5.63;;;;;;;;;;2123147;28;20527;-42
2021/07/23 02:10:24;;;;;;;10.68;5.68;;;;;;;;;;2123398;28;20047;-42
2021/07/23 02:11:25;;;;;;;7.97;5.47;;;;;;;;;;2122744;27;20051;-42
2021/07/23 02:12:26;;;;;;;8.17;5.77;;;;;;;;;;2131927;27;20445;-42
2021/07/23 02:13:27;;;;;;;7.70;4.88;;;;;;;;;;2132001;27;20130;-42
2021/07/23 02:14:30;;;;;;;8.43;5.90;;;;;;;;;;2123464;27;20521;-42
2021/07/23 02:15:30;;;;;;;8.32;6.15;;;;;;;;;;2131937;27;20125;-42
2021/07/23 02:16:31;;;;;;;8.80;5.53;;;;;;;;;;2131019;27;20134;-42
2021/07/23 02:17:32;;;;;;;10.38;6.18;;;;;;;;;;2124647;27;20050;-42
2021/07/23 02:18:34;;;;;;;10.20;5.27;;;;;;;;;;2131773;27;20074;-42
2021/07/23 02:19:34;;;;;;;9.93;6.10;;;;;;;;;;2125941;27;20142;-42
2021/07/23 02:20:36;;;;;;;7.67;5.43;;;;;;;;;;2123655;27;20568;-42
2021/07/23 02:21:37;;;;;;;11.85;6.13;;;;;;;;;;2123357;28;20287;-42
2021/07/23 02:22:38;;;;;;;9.13;6.07;;;;;;;;;;2122085;27;20047;-42
2021/07/23 02:23:39;;;;;;;7.72;5.30;;;;;;;;;;2126984;27;20636;-42
2021/07/23 02:24:41;;;;;;;9.93;5.83;;;;;;;;;;2131336;27;20122;-42
2021/07/23 02:25:42;;;;;;;;;;;;;;;;;;2127375;27;20133;-42
2021/07/23 02:26:43;;;;;;;9.27;5.80;;;;;;;;;;2125074;27;19923;-42
2021/07/23 02:27:44;;;;;;;9.95;5.95;;;;;;;;;;2122962;28;20268;-42
2021/07/23 02:28:45;;;;;;;12.83;6.73;;;;;;;;;;2121353;27;20100;-42
2021/07/23 02:29:46;;;;;;;7.85;5.78;;;;;;;;;;2128253;27;20046;-42
2021/07/23 02:30:47;;;;;;;10.47;6.40;;;;;;;;;;2131845;27;20042;-42
2021/07/23 02:31:48;;;;;;;9.88;5.75;;;;;;;;;;2125128;27;20064;-42
2021/07/23 02:32:50;;;;;;;9.60;6.55;;;;;;;;;;2129989;27;20046;-42
2021/07/23 02:33:50;;;;;;;12.55;6.90;;;;;;;;;;2131695;27;20507;-42
2021/07/23 02:34:52;;;;;;;11.60;6.90;;;;;;;;;;2124743;27;20090;-42
2021/07/23 02:35:52;;;;;;;11.07;6.60;;;;;;;;;;2130797;27;20133;-42
2021/07/23 02:36:53;;;;;;;10.18;6.15;;;;;;;;;;2131762;27;20363;-42
2021/07/23 02:37:54;;;;;;;12.15;6.20;;;;;;;;;;2123762;27;20134;-42
2021/07/23 02:38:55;;;;;;;9.40;5.97;;;;;;;;;;2131322;27;20046;-42
2021/07/23 02:39:57;;;;;;;10.98;6.43;;;;;;;;;;2131629;27;20050;-42
2021/07/23 02:40:58;;;;;;;15.10;6.15;;;;;;;;;;2123539;27;20050;-42
2021/07/23 02:41:59;;;;;;;8.90;6.15;;;;;;;;;;2131518;27;20524;-42
2021/07/23 02:43:00;;;;;;;10.93;5.73;;;;;;;;;;2131637;27;20047;-42
2021/07/23 02:44:01;;;;;;;14.38;6.32;;;;;;;;;;2123257;27;20071;-42
2021/07/23 02:45:02;;;;;;;9.60;6.07;;;;;;;;;;2131736;27;20051;-42
2021/07/23 02:46:03;;;;;;;10.70;5.82;;;;;;;;;;2131556;27;20050;-42
2021/07/23 02:47:04;;;;;;;10.90;6.40;;;;;;;;;;2123411;27;20050;-42
2021/07/23 02:48:07;;;;;;;13.45;6.40;;;;;;;;;;2122984;28;20059;-42
2021/07/23 02:49:08;;;;;;;9.45;6.03;;;;;;;;;;2122817;27;20105;-42
2021/07/23 02:50:09;;;;;;;9.38;5.50;;;;;;;;;;2124069;27;20138;-42
2021/07/23 02:51:10;;;;;;;11.80;6.35;;;;;;;;;;2131704;27;20042;-42
2021/07/23 02:52:11;;;;;;;12.65;6.00;;;;;;;;;;2128879;27;20137;-42
2021/07/23 02:53:12;;;;;;;8.53;5.63;;;;;;;;;;2123655;27;20050;-42
2021/07/23 02:54:13;;;;;;;11.13;6.28;;;;;;;;;;2123101;28;20051;-42
2021/07/23 02:55:15;;;;;;;9.47;5.23;;;;;;;;;;2122286;27;20059;-42
2021/07/23 02:56:15;;;;;;;;;;;;;;;;;;2124403;27;20529;-42
2021/07/23 02:57:17;;;;;;;9.00;6.07;;;;;;;;;;2122875;28;20029;-42
2021/07/23 02:58:18;;;;;;;9.90;5.95;;;;;;;;;;2121149;27;20423;-42
2021/07/23 02:59:19;;;;;;;13.73;5.88;;;;;;;;;;2127846;27;20078;-42
2021/07/23 03:00:22;;;;;;;9.80;5.75;;;;;;;;;;2131642;27;20186;-42
2021/07/23 03:01:23;;;;;;;11.10;5.63;;;;;;;;;;2126054;27;20121;-42
2021/07/23 03:02:24;;;;;;;12.93;5.82;;;;;;;;;;2129079;27;20043;-42
2021/07/23 03:03:25;;;;;;;9.35;5.68;;;;;;;;;;2131543;27;20073;-42
2021/07/23 03:04:26;;;;;;;10.55;5.80;;;;;;;;;;2125149;27;20142;-41
2021/07/23 03:05:27;;;;;;;11.60;6.30;;;;;;;;;;2129570;27;20197;-42
2021/07/23 03:06:28;;;;;;;13.20;6.20;;;;;;;;;;2131623;27;20130;-44
2021/07/23 03:07:29;;;;;;;16.20;7.73;;;;;;;;;;2125823;27;20047;-45
2021/07/23 03:08:30;;;;;;;16.25;6.30;;;;;;;;;;2123325;27;20133;-45
2021/07/23 03:09:31;;;;;;;9.43;5.77;;;;;;;;;;2122922;28;20047;-44
2021/07/23 03:10:33;;;;;;;13.02;6.00;;;;;;;;;;2122813;27;20051;-44
2021/07/23 03:11:34;;;;;;;9.98;5.43;;;;;;;;;;2121779;27;20058;-44
2021/07/23 03:12:35;;;;;;;10.95;5.82;;;;;;;;;;2122675;28;20047;-45
2021/07/23 03:13:37;;;;;;;11.13;5.78;;;;;;;;;;2121390;27;20416;-45
2021/07/23 03:14:38;;;;;;;9.05;5.75;;;;;;;;;;2131356;27;20083;-44
2021/07/23 03:15:39;;;;;;;7.63;4.83;;;;;;;;;;2127455;27;20047;-45
2021/07/23 03:16:40;;;;;;;7.10;4.97;;;;;;;;;;2122008;27;20045;-44
2021/07/23 03:17:41;;;;;;;6.55;4.40;;;;;;;;;;2131355;27;20432;-46
2021/07/23 03:18:42;;;;;;;8.48;5.10;;;;;;;;;;2131539;27;20047;-45
2021/07/23 03:19:43;;;;;;;9.60;4.97;;;;;;;;;;2122942;27;20507;-45
2021/07/23 03:20:44;;;;;;;9.82;4.75;;;;;;;;;;2131458;27;20133;-44
2021/07/23 03:21:47;;;;;;;6.07;4.13;;;;;;;;;;2130790;27;20114;-45
2021/07/23 03:22:48;;;;;;;8.00;4.43;;;;;;;;;;2124013;27;20392;-45
2021/07/23 03:23:50;;;;;;;8.03;4.83;;;;;;;;;;2131487;27;20055;-44
2021/07/23 03:24:50;;;;;;;16.25;4.93;;;;;;;;;;2129701;27;20445;-45
2021/07/23 03:25:52;;;;;;;9.03;4.37;;;;;;;;;;2124929;27;20048;-44
2021/07/23 03:26:53;;;;;;;6.20;4.28;;;;;;;;;;2131306;27;20583;-44
2021/07/23 03:27:54;;;;;;;6.20;4.43;;;;;;;;;;2128183;27;20055;-45
2021/07/23 03:28:56;;;;;;;5.72;4.20;;;;;;;;;;2126409;27;20051;-45
2021/07/23 03:29:57;;;;;;;6.10;4.15;;;;;;;;;;2131445;27;20046;-45
2021/07/23 03:30:58;;;;;;;10.98;4.20;;;;;;;;;;2126472;27;20051;-44
2021/07/23 03:32:00;;;;;;;10.98;4.38;;;;;;;;;;2128098;27;20060;-44
2021/07/23 03:33:00;;;;;;;8.85;4.35;;;;;;;;;;2131139;27;20396;-44
2021/07/23 03:34:04;;;;;;;5.68;4.13;;;;;;;;;;2125564;27;20054;-44
2021/07/23 03:35:05;;;;;;;6.00;4.70;;;;;;;;;;2129064;27;20134;-44
2021/07/23 03:36:06;;;;;;;5.63;3.85;;;;;;;;;;2130653;27;20448;-44
2021/07/23 03:37:07;;;;;;;6.82;4.28;;;;;;;;;;2125214;27;20134;-44
2021/07/23 03:38:08;;;;;;;7.47;4.07;;;;;;;;;;2121551;27;20499;-44
2021/07/23 03:39:09;;;;;;;11.35;4.63;;;;;;;;;;2122581;28;20130;-45
2021/07/23 03:40:10;;;;;;;7.07;3.77;;;;;;;;;;2122384;27;20051;-44
2021/07/23 03:41:12;;;;;;;8.45;4.03;;;;;;;;;;2122869;27;20389;-44
2021/07/23 03:42:13;;;;;;;8.38;4.32;;;;;;;;;;2122740;28;20063;-45
2021/07/23 03:43:14;;;;;;;6.05;4.03;;;;;;;;;;2122876;27;20046;-44
2021/07/23 03:44:15;;;;;;;6.43;4.20;;;;;;;;;;2122516;28;20050;-45
2021/07/23 03:45:16;;;;;;;6.63;3.42;;;;;;;;;;2122665;28;20603;-45
2021/07/23 03:46:17;;;;;;;8.90;3.67;;;;;;;;;;2122734;27;20224;-45
2021/07/23 03:47:18;;;;;;;7.18;3.38;;;;;;;;;;2114229;28;20051;-44
2021/07/23 03:48:20;;;;;;;;;;;;;;;;;;2114736;28;20058;-45
2021/07/23 03:49:21;;;;;;;6.50;3.22;;;;;;;;;;2121928;27;19923;-46
2021/07/23 03:50:22;;;;;;;8.93;3.23;;;;;;;;;;2122658;28;20054;-45
2021/07/23 03:51:23;;;;;;;8.90;3.33;;;;;;;;;;2122554;28;20667;-45
2021/07/23 03:52:24;;;;;;;5.20;3.33;;;;;;;;;;2120706;27;20133;-45
2021/07/23 03:53:26;;;;;;;5.03;3.15;;;;;;;;;;2122571;28;20055;-44
2021/07/23 03:54:27;;;;;;;5.75;2.78;;;;;;;;;;2122293;27;20492;-46
2021/07/23 03:55:28;;;;;;;6.82;3.55;;;;;;;;;;2123812;27;20078;-47
2021/07/23 03:56:30;;;;;;;7.23;2.97;;;;;;;;;;2131396;27;20078;-44
2021/07/23 03:57:30;;;;;;;6.60;3.67;;;;;;;;;;2128896;27;20039;-45
2021/07/23 03:58:32;;;;;;;9.07;3.37;;;;;;;;;;2123310;27;20066;-45
2021/07/23 03:59:33;;;;;;;7.05;2.88;;;;;;;;;;2122448;28;20063;-45
2021/07/23 04:00:34;;;;;;;5.93;2.90;;;;;;;;;;2121260;27;20058;-44
2021/07/23 04:01:35;;;;;;;3.67;2.53;;;;;;;;;;2124139;27;20047;-45
2021/07/23 04:02:36;;;;;;;10.13;3.20;;;;;;;;;;2122498;28;20075;-44
2021/07/23 04:03:37;;;;;;;6.35;3.08;;;;;;;;;;2120595;27;20589;-45
2021/07/23 04:04:39;;;;;;;6.38;3.10;;;;;;;;;;2127882;27;20471;-44
2021/07/23 04:05:40;;;;;;;6.53;3.45;;;;;;;;;;2131265;27;20078;-45
2021/07/23 04:06:41;;;;;;;6.23;3.70;;;;;;;;;;2125211;27;20054;-45
2021/07/23 04:07:42;;;;;;;8.18;3.35;;;;;;;;;;2128879;27;20282;-45
2021/07/23 04:08:43;;;;;;;5.77;3.20;;;;;;;;;;2131136;27;20418;-45
2021/07/23 04:09:44;;;;;;;9.40;4.10;;;;;;;;;;2125483;27;20062;-44
2021/07/23 04:10:45;;;;;;;7.47;3.60;;;;;;;;;;2123486;27;20047;-44
2021/07/23 04:11:48;;;;;;;5.22;2.92;;;;;;;;;;2125093;27;20050;-45
2021/07/23 04:12:50;;;;;;;7.47;3.22;;;;;;;;;;2124437;27;20088;-44
2021/07/23 04:13:51;;;;;;;8.68;3.70;;;;;;;;;;2122483;28;20145;-45
2021/07/23 04:14:52;;;;;;;4.93;3.13;;;;;;;;;;2122493;28;20490;-45
2021/07/23 04:15:53;;;;;;;6.55;3.42;;;;;;;;;;2121919;27;20108;-45
2021/07/23 04:16:54;;;;;;;8.50;3.87;;;;;;;;;;2130987;27;20570;-44
2021/07/23 04:17:55;;;;;;;6.25;3.33;;;;;;;;;;2129913;27;20094;-44
2021/07/23 04:18:56;;;;;;;8.63;3.47;;;;;;;;;;2123793;27;20139;-44
2021/07/23 04:19:57;;;;;;;8.43;3.58;;;;;;;;;;2122534;28;20053;-45
2021/07/23 04:20:58;;;;;;;4.83;3.13;;;;;;;;;;2122020;27;20057;-45
2021/07/23 04:22:00;;;;;;;5.10;2.65;;;;;;;;;;2123058;27;20047;-44
2021/07/23 04:23:01;;;;;;;6.43;3.20;;;;;;;;;;2122365;28;20043;-45
2021/07/23 04:24:02;;;;;;;6.07;3.13;;;;;;;;;;2121073;27;20134;-44
2021/07/23 04:25:04;;;;;;;9.85;3.08;;;;;;;;;;2126697;27;20150;-45
2021/07/23 04:26:05;;;;;;;5.70;2.85;;;;;;;;;;2131095;27;20050;-44
2021/07/23 04:27:07;;;;;;;4.90;3.03;;;;;;;;;;2125762;27;20188;-45
2021/07/23 04:28:08;;;;;;;9.07;3.63;;;;;;;;;;2124208;27;20499;-45
2021/07/23 04:29:09;;;;;;;5.93;3.03;;;;;;;;;;2122355;28;20043;-45
2021/07/23 04:30:11;;;;;;;7.47;3.33;;;;;;;;;;2120453;27;20130;-44
2021/07/23 04:31:12;;;;;;;6.50;3.15;;;;;;;;;;2128921;27;20045;-44
2021/07/23 04:32:12;;;;;;;6.32;3.05;;;;;;;;;;2130884;27;20431;-45
2021/07/23 04:33:13;;;;;;;6.63;3.30;;;;;;;;;;2124171;27;20040;-45
2021/07/23 04:34:24;;;;;;;5.80;3.00;;;;;;;;;;2129083;27;20051;-45
2021/07/23 04:35:24;;;;;;;5.50;3.42;;;;;;;;;;2130896;27;20047;-45
2021/07/23 04:36:26;;;;;;;7.17;3.20;;;;;;;;;;2122637;27;20099;-44
2021/07/23 04:37:27;;;;;;;7.93;2.88;;;;;;;;;;2130861;27;20046;-44
2021/07/23 04:38:28;;;;;;;8.80;3.03;;;;;;;;;;2130902;27;20568;-45
2021/07/23 04:39:29;;;;;;;10.03;3.20;;;;;;;;;;2122454;27;20088;-44
2021/07/23 04:40:29;;;;;;;7.25;3.15;;;;;;;;;;2130913;27;20129;-45
2021/07/23 04:41:31;;;;;;;8.73;3.17;;;;;;;;;;2130988;27;20043;-45
2021/07/23 04:42:32;;;;;;;5.57;3.05;;;;;;;;;;2122601;27;20137;-45
2021/07/23 04:43:35;;;;;;;12.20;3.85;;;;;;;;;;2122465;28;20134;-46
2021/07/23 04:44:36;;;;;;;8.00;3.50;;;;;;;;;;2121890;27;20186;-44
2021/07/23 04:45:37;;;;;;;6.03;3.40;;;;;;;;;;2123680;27;20634;-45
2021/07/23 04:46:38;;;;;;;8.85;2.97;;;;;;;;;;2130865;27;20521;-44
2021/07/23 04:47:39;;;;;;;7.03;3.40;;;;;;;;;;2129521;27;20053;-44
2021/07/23 04:48:40;;;;;;;6.95;3.15;;;;;;;;;;2125942;27;20611;-46
2021/07/23 04:49:41;;;;;;;8.27;3.10;;;;;;;;;;2132321;27;20042;-44
2021/07/23 04:50:42;;;;;;;7.22;3.40;;;;;;;;;;2129389;27;20047;-44
2021/07/23 04:51:43;;;;;;;5.87;3.30;;;;;;;;;;2127368;27;20076;-44
2021/07/23 04:52:44;;;;;;;8.10;3.63;;;;;;;;;;2130753;27;20487;-45
2021/07/23 04:53:45;;;;;;;6.23;3.30;;;;;;;;;;2127841;27;20100;-44
2021/07/23 04:54:46;;;;;;;8.32;3.47;;;;;;;;;;2128942;27;20134;-44
2021/07/23 04:55:51;;;;;;;9.17;3.70;;;;;;;;;;2132468;27;20098;-44
2021/07/23 04:56:53;;;;;;;6.32;3.90;;;;;;;;;;2126383;27;20543;-45
2021/07/23 04:57:55;;;;;;;9.63;4.15;;;;;;;;;;2130469;27;20104;-45
2021/07/23 04:58:56;;;;;;;8.32;3.40;;;;;;;;;;2132280;27;20057;-44
2021/07/23 04:59:57;;;;;;;9.10;3.27;;;;;;;;;;2125373;27;20135;-45
2021/07/23 05:00:58;;;;;;;9.50;4.25;;;;;;;;;;2131255;27;20163;-46
2021/07/23 05:02:00;;;;;;;5.35;2.88;;;;;;;;;;2132335;27;20514;-45
2021/07/23 05:03:01;;;;;;;6.78;3.40;;;;;;;;;;2124252;27;20453;-45
2021/07/23 05:04:02;;;;;;;6.95;3.05;;;;;;;;;;2132003;27;20050;-45
2021/07/23 05:05:05;;;;;;;8.35;2.90;;;;;;;;;;2132325;27;20106;-45
2021/07/23 05:06:07;;;;;;;5.40;3.00;;;;;;;;;;2123962;27;20126;-45
2021/07/23 05:07:08;;;;;;;9.70;3.30;;;;;;;;;;2115000;28;20441;-45
2021/07/23 05:08:10;;;;;;;6.70;3.07;;;;;;;;;;2118658;27;20074;-47
2021/07/23 05:09:10;;;;;;;7.65;2.90;;;;;;;;;;2123824;27;20138;-45
2021/07/23 05:10:12;;;;;;;8.50;2.70;;;;;;;;;;2123683;28;20055;-45
2021/07/23 05:11:13;;;;;;;7.18;2.80;;;;;;;;;;2123773;28;20134;-45
2021/07/23 05:12:14;;;;;;;3.85;2.33;;;;;;;;;;2123592;27;20133;-45
2021/07/23 05:13:16;;;;;;;11.18;2.55;;;;;;;;;;2123802;28;20129;-45
2021/07/23 05:14:17;;;;;;;8.85;3.03;;;;;;;;;;2123241;27;20111;-46
2021/07/23 05:15:19;;;;;;;4.40;2.38;;;;;;;;;;2124053;27;20175;-45
2021/07/23 05:16:20;;;;;;;5.63;2.83;;;;;;;;;;2123750;28;20054;-46
2021/07/23 05:17:23;;;;;;;8.23;2.95;;;;;;;;;;2123013;27;20070;-46
2021/07/23 05:18:25;;;;;;;7.97;2.90;;;;;;;;;;2127039;27;20505;-45
2021/07/23 05:19:26;;;;;;;;;;;;;;;;;;2132550;27;20077;-46
2021/07/23 05:20:27;;;;;;;9.02;2.97;;;;;;;;;;2127709;27;19930;-46
2021/07/23 05:21:28;;;;;;;7.55;3.05;;;;;;;;;;2128513;27;20471;-45
2021/07/23 05:22:31;;;;;;;7.00;2.57;;;;;;;;;;2132345;27;20053;-46
2021/07/23 05:23:36;;;;;;;11.30;2.55;;;;;;;;;;2126023;27;20282;-45
2021/07/23 05:24:37;;;;;;;8.25;2.65;;;;;;;;;;2130302;27;20050;-47
2021/07/23 05:25:38;;;;;;;7.38;2.53;;;;;;;;;;2132127;27;20099;-46
2021/07/23 05:26:40;;;;;;;4.28;2.45;;;;;;;;;;2125172;27;20134;-46
2021/07/23 05:27:41;;;;;;;5.63;2.30;;;;;;;;;;2131076;27;20142;-45
2021/07/23 05:28:43;;;;;;;9.03;2.67;;;;;;;;;;2132136;27;20590;-46
2021/07/23 05:29:43;;;;;;;5.15;2.10;;;;;;;;;;2126516;27;20773;-46
2021/07/23 05:30:45;;;;;;;8.60;2.53;;;;;;;;;;2123434;28;20047;-46
2021/07/23 05:31:45;;;;;;;17.60;2.70;;;;;;;;;;2123620;28;20130;-48
2021/07/23 05:32:46;;;;;;;6.43;2.90;;;;;;;;;;2121879;27;20519;-44
2021/07/23 05:33:47;;;;;;;5.85;2.40;;;;;;;;;;2132094;27;20286;-46
2021/07/23 05:34:48;;;;;;;6.20;2.60;;;;;;;;;;2132030;27;20137;-45
2021/07/23 05:35:49;;;;;;;6.72;2.72;;;;;;;;;;2124013;27;20130;-46
2021/07/23 05:36:50;;;;;;;7.13;2.50;;;;;;;;;;2132123;27;20105;-45
2021/07/23 05:37:51;;;;;;;5.38;2.60;;;;;;;;;;2132141;27;20043;-45
2021/07/23 05:38:52;;;;;;;5.53;2.27;;;;;;;;;;2123137;27;20146;-45
2021/07/23 05:39:53;;;;;;;12.45;2.63;;;;;;;;;;2123522;28;20070;-45
2021/07/23 05:40:54;;;;;;;17.43;2.80;;;;;;;;;;2123575;28;20074;-45
2021/07/23 05:41:55;;;;;;;7.22;2.35;;;;;;;;;;2122381;27;20574;-46
2021/07/23 05:42:56;;;;;;;10.07;2.10;;;;;;;;;;2123620;28;20233;-46
2021/07/23 05:43:57;;;;;;;5.20;2.58;;;;;;;;;;2123246;27;20485;-47
2021/07/23 05:44:59;;;;;;;4.30;2.60;;;;;;;;;;2124851;27;20043;-48
2021/07/23 05:46:02;;;;;;;10.63;3.47;;;;;;;;;;2132046;27;20050;-49
2021/07/23 05:47:03;;;;;;;6.57;2.60;;;;;;;;;;2129323;27;20081;-47
2021/07/23 05:48:05;;;;;;;14.27;3.00;;;;;;;;;;2124549;27;20046;-45
2021/07/23 05:49:06;;;;;;;7.25;3.08;;;;;;;;;;2123448;28;20105;-45
2021/07/23 05:50:07;;;;;;;10.07;3.25;;;;;;;;;;2121533;27;20058;-45
2021/07/23 05:51:08;;;;;;;6.60;2.92;;;;;;;;;;2128231;27;20413;-44
2021/07/23 05:52:09;;;;;;;8.73;3.28;;;;;;;;;;2130392;27;20047;-45
2021/07/23 05:53:10;;;;;;;7.40;2.70;;;;;;;;;;2126739;27;20051;-45
2021/07/23 05:54:11;;;;;;;5.43;2.40;;;;;;;;;;2129265;27;20042;-45
2021/07/23 05:55:12;;;;;;;6.67;2.40;;;;;;;;;;2131881;27;20505;-45
2021/07/23 05:56:13;;;;;;;4.93;2.53;;;;;;;;;;2126407;27;20043;-46
2021/07/23 05:57:14;;;;;;;5.50;2.53;;;;;;;;;;2124651;27;20049;-44
2021/07/23 05:58:15;;;;;;;;;;;;;;;;;;2123980;28;20119;-46
2021/07/23 05:59:17;;;;;;;4.55;2.13;;;;;;;;;;2121536;27;19923;-44
2021/07/23 06:00:18;;;;;;;6.22;2.45;;;;;;;;;;2123851;27;20158;-45
2021/07/23 06:01:19;;;;;;;8.38;2.50;;;;;;;;;;2123431;28;20135;-44
2021/07/23 06:02:20;;;;;;;6.60;2.58;;;;;;;;;;2121158;27;20053;-44
2021/07/23 06:03:22;;;;;;;3.60;2.38;;;;;;;;;;2131568;27;20133;-45
2021/07/23 06:04:23;;;;;;;5.47;2.20;;;;;;;;;;2128197;27;20050;-45
2021/07/23 06:05:24;;;;;;;11.25;2.58;;;;;;;;;;2121777;27;20046;-47
2021/07/23 06:06:25;;;;;;;6.43;2.20;;;;;;;;;;2131682;27;20464;-44